createdAt,value
2018-12-20T00:00:36.199Z,85.16
2018-12-20T00:02:10.203Z,84.92
2018-12-20T00:03:44.143Z,84.93
2018-12-20T00:05:16.991Z,84.96
2018-12-20T00:06:49.919Z,84.90
2018-12-20T00:08:22.878Z,85.19
2018-12-20T00:09:56.981Z,85.01
2018-12-20T00:11:30.745Z,85.03
2018-12-20T00:13:04.509Z,85.10
2018-12-20T00:14:38.260Z,85.04
2018-12-20T00:16:12.160Z,85.11
2018-12-20T00:17:50.927Z,85.08
2018-12-20T00:19:24.740Z,85.25
2018-12-20T00:20:59.022Z,85.37
2018-12-20T00:22:32.131Z,85.33
2018-12-20T00:24:05.105Z,85.40
2018-12-20T00:25:38.981Z,85.75
2018-12-20T00:27:12.902Z,85.64
2018-12-20T00:28:47.054Z,85.96
2018-12-20T00:30:20.984Z,85.64
2018-12-20T00:31:53.830Z,85.75
2018-12-20T00:33:26.968Z,85.86
2018-12-20T00:35:00.812Z,85.89
2018-12-20T00:36:34.720Z,85.73
2018-12-20T00:38:07.483Z,85.47
2018-12-20T00:39:41.328Z,85.89
2018-12-20T00:41:14.324Z,85.76
2018-12-20T00:42:47.990Z,85.67
2018-12-20T00:44:21.972Z,85.84
2018-12-20T00:45:55.163Z,85.68
2018-12-20T00:47:27.942Z,85.62
2018-12-20T00:49:00.726Z,85.65
2018-12-20T00:50:33.458Z,85.50
2018-12-20T00:52:07.389Z,86.10
2018-12-20T00:53:40.876Z,86.22
2018-12-20T00:55:14.025Z,85.46
2018-12-20T00:56:46.938Z,85.61
2018-12-20T00:58:20.667Z,85.77
2018-12-20T00:59:54.591Z,85.74
2018-12-20T01:01:28.352Z,85.82
2018-12-20T01:03:02.531Z,85.92
2018-12-20T01:04:36.654Z,85.81
2018-12-20T01:06:11.098Z,85.91
2018-12-20T01:07:45.534Z,85.97
2018-12-20T01:09:21.513Z,86.16
2018-12-20T01:10:55.316Z,86.17
2018-12-20T01:12:28.129Z,86.08
2018-12-20T01:14:01.045Z,86.07
2018-12-20T01:15:34.073Z,86.08
2018-12-20T01:17:07.810Z,86.19
2018-12-20T01:18:41.804Z,85.70
2018-12-20T01:20:14.991Z,85.75
2018-12-20T01:21:47.719Z,85.85
2018-12-20T01:23:22.053Z,86.08
2018-12-20T01:24:56.093Z,85.94
2018-12-20T01:26:29.946Z,85.81
2018-12-20T01:28:02.834Z,85.68
2018-12-20T01:29:36.648Z,85.81
2018-12-20T01:31:10.568Z,85.69
2018-12-20T01:32:45.353Z,85.65
2018-12-20T01:34:19.301Z,85.73
2018-12-20T01:35:53.106Z,85.82
2018-12-20T01:37:26.838Z,85.64
2018-12-20T01:39:00.498Z,85.87
2018-12-20T01:40:33.601Z,85.97
2018-12-20T01:42:07.458Z,85.82
2018-12-20T01:43:40.117Z,85.44
2018-12-20T01:45:14.098Z,85.82
2018-12-20T01:46:48.109Z,85.73
2018-12-20T01:48:21.866Z,85.44
2018-12-20T01:49:54.806Z,85.74
2018-12-20T01:51:28.677Z,85.65
2018-12-20T01:53:02.417Z,85.39
2018-12-20T01:54:36.449Z,85.18
2018-12-20T01:56:10.712Z,85.46
2018-12-20T01:57:44.804Z,85.36
2018-12-20T01:59:17.416Z,85.24
2018-12-20T02:00:51.688Z,85.25
2018-12-20T02:02:25.417Z,85.50
2018-12-20T02:03:58.416Z,85.28
2018-12-20T02:05:31.841Z,85.49
2018-12-20T02:07:04.914Z,85.32
2018-12-20T02:08:37.935Z,85.57
2018-12-20T02:10:11.776Z,85.34
2018-12-20T02:11:44.645Z,85.49
2018-12-20T02:13:18.721Z,85.37
2018-12-20T02:14:52.643Z,85.16
2018-12-20T02:16:25.537Z,85.43
2018-12-20T02:17:59.390Z,85.41
2018-12-20T02:19:33.422Z,85.42
2018-12-20T02:21:06.592Z,85.44
2018-12-20T02:22:40.556Z,85.47
2018-12-20T02:24:14.706Z,85.36
2018-12-20T02:25:48.402Z,85.35
2018-12-20T02:27:22.198Z,85.55
2018-12-20T02:28:56.125Z,85.42
2018-12-20T02:30:31.456Z,85.51
2018-12-20T02:32:05.160Z,85.36
2018-12-20T02:33:39.097Z,85.35
2018-12-20T02:35:13.140Z,85.36
2018-12-20T02:36:46.107Z,85.14
2018-12-20T02:38:20.353Z,85.21
2018-12-20T02:39:53.086Z,85.53
2018-12-20T02:41:26.869Z,85.35
2018-12-20T02:42:59.897Z,85.34
2018-12-20T02:44:32.875Z,85.15
2018-12-20T02:46:07.568Z,85.34
2018-12-20T02:47:42.478Z,85.23
2018-12-20T02:49:16.646Z,85.12
2018-12-20T02:50:49.672Z,85.01
2018-12-20T02:52:22.398Z,85.40
2018-12-20T02:53:55.555Z,85.26
2018-12-20T02:55:28.775Z,85.23
2018-12-20T02:57:02.542Z,85.27
2018-12-20T02:58:35.496Z,85.28
2018-12-20T03:00:09.361Z,85.35
2018-12-20T03:01:43.233Z,85.25
2018-12-20T03:03:17.081Z,85.48
2018-12-20T03:04:51.179Z,85.35
2018-12-20T03:06:24.894Z,85.16
2018-12-20T03:07:58.718Z,85.12
2018-12-20T03:09:32.860Z,85.14
2018-12-20T03:11:06.322Z,85.27
2018-12-20T03:12:40.271Z,85.17
2018-12-20T03:14:14.300Z,85.55
2018-12-20T03:15:47.472Z,85.65
2018-12-20T03:17:22.227Z,85.55
2018-12-20T03:18:56.549Z,85.10
2018-12-20T03:20:30.580Z,85.39
2018-12-20T03:22:03.757Z,85.39
2018-12-20T03:23:37.537Z,85.21
2018-12-20T03:25:11.686Z,85.33
2018-12-20T03:26:45.067Z,85.28
2018-12-20T03:28:18.699Z,85.28
2018-12-20T03:29:52.356Z,85.56
2018-12-20T03:31:26.271Z,85.46
2018-12-20T03:32:59.271Z,85.58
2018-12-20T03:34:33.222Z,85.23
2018-12-20T03:36:07.243Z,85.23
2018-12-20T03:37:41.180Z,85.44
2018-12-20T03:39:14.636Z,85.44
2018-12-20T03:40:48.672Z,85.61
2018-12-20T03:42:22.465Z,85.59
2018-12-20T03:43:56.635Z,85.22
2018-12-20T03:45:29.517Z,85.60
2018-12-20T03:47:04.282Z,85.31
2018-12-20T03:48:38.641Z,85.11
2018-12-20T03:50:11.492Z,85.25
2018-12-20T03:51:44.396Z,85.38
2018-12-20T03:53:17.445Z,85.21
2018-12-20T03:54:51.505Z,85.53
2018-12-20T03:56:25.022Z,85.10
2018-12-20T03:57:57.923Z,85.17
2018-12-20T03:59:30.932Z,84.76
2018-12-20T04:01:04.689Z,84.97
2018-12-20T04:02:38.599Z,85.35
2018-12-20T04:04:13.288Z,85.13
2018-12-20T04:05:46.817Z,85.58
2018-12-20T04:07:20.777Z,84.96
2018-12-20T04:08:54.616Z,85.37
2018-12-20T04:10:28.270Z,85.03
2018-12-20T04:12:01.218Z,85.08
2018-12-20T04:13:35.358Z,85.30
2018-12-20T04:15:09.143Z,84.66
2018-12-20T04:16:43.146Z,85.23
2018-12-20T04:18:17.081Z,84.81
2018-12-20T04:19:49.976Z,85.48
2018-12-20T04:21:23.162Z,84.90
2018-12-20T04:22:56.968Z,84.98
2018-12-20T04:24:31.107Z,85.43
2018-12-20T04:26:04.971Z,84.99
2018-12-20T04:27:38.954Z,84.98
2018-12-20T04:29:12.765Z,85.06
2018-12-20T04:30:46.429Z,85.37
2018-12-20T04:32:20.201Z,85.43
2018-12-20T04:33:53.202Z,84.94
2018-12-20T04:35:26.181Z,85.24
2018-12-20T04:37:00.762Z,85.43
2018-12-20T04:38:35.710Z,84.91
2018-12-20T04:40:10.184Z,84.87
2018-12-20T04:41:42.899Z,84.78
2018-12-20T04:43:16.650Z,85.05
2018-12-20T04:44:49.910Z,85.05
2018-12-20T04:46:23.240Z,85.11
2018-12-20T04:47:57.090Z,85.27
2018-12-20T04:49:30.041Z,83.52
2018-12-20T04:51:03.842Z,83.83
2018-12-20T04:52:36.846Z,84.07
2018-12-20T04:54:10.919Z,84.88
2018-12-20T04:55:44.961Z,84.39
2018-12-20T04:57:18.945Z,84.82
2018-12-20T04:58:51.769Z,84.58
2018-12-20T05:00:25.687Z,84.87
2018-12-20T05:01:58.686Z,84.79
2018-12-20T05:03:32.711Z,84.82
2018-12-20T05:05:07.802Z,84.72
2018-12-20T05:06:41.192Z,84.89
2018-12-20T05:08:14.210Z,84.98
2018-12-20T05:09:47.234Z,84.81
2018-12-20T05:11:36.179Z,84.85
2018-12-20T05:13:09.329Z,84.97
2018-12-20T05:14:44.005Z,84.93
2018-12-20T05:16:17.746Z,85.15
2018-12-20T05:17:50.848Z,84.41
2018-12-20T05:19:25.596Z,84.64
2018-12-20T05:20:59.451Z,84.65
2018-12-20T05:22:33.329Z,83.90
2018-12-20T05:24:06.409Z,84.23
2018-12-20T05:25:40.505Z,83.82
2018-12-20T05:27:14.948Z,83.68
2018-12-20T05:28:48.906Z,84.27
2018-12-20T05:30:23.627Z,84.15
2018-12-20T05:31:57.781Z,84.36
2018-12-20T05:33:30.739Z,82.27
2018-12-20T05:35:04.975Z,83.52
2018-12-20T05:36:39.039Z,84.21
2018-12-20T05:38:12.961Z,82.94
2018-12-20T05:39:46.739Z,84.04
2018-12-20T05:41:20.539Z,84.87
2018-12-20T05:42:54.581Z,85.06
2018-12-20T05:44:28.784Z,84.12
2018-12-20T05:46:04.556Z,85.24
2018-12-20T05:47:36.024Z,85.01
2018-12-20T05:49:09.630Z,83.54
2018-12-20T05:50:43.579Z,84.78
2018-12-20T05:52:17.650Z,84.98
2018-12-20T05:53:50.672Z,84.68
2018-12-20T05:55:24.706Z,83.12
2018-12-20T05:56:59.519Z,84.06
2018-12-20T05:58:32.986Z,84.36
2018-12-20T06:00:06.978Z,84.86
2018-12-20T06:01:40.742Z,84.47
2018-12-20T06:03:14.782Z,84.92
2018-12-20T06:04:48.620Z,84.77
2018-12-20T06:06:22.783Z,85.16
2018-12-20T06:07:56.614Z,83.87
2018-12-20T06:09:31.874Z,84.64
2018-12-20T06:11:07.033Z,83.82
2018-12-20T06:12:41.091Z,84.35
2018-12-20T06:14:14.921Z,84.94
2018-12-20T06:15:48.669Z,84.35
2018-12-20T06:17:22.543Z,84.50
2018-12-20T06:18:56.467Z,84.83
2018-12-20T06:20:30.390Z,84.52
2018-12-20T06:22:03.574Z,84.64
2018-12-20T06:23:37.418Z,84.38
2018-12-20T06:25:11.396Z,85.01
2018-12-20T06:26:45.555Z,84.75
2018-12-20T06:28:19.479Z,84.74
2018-12-20T06:29:53.184Z,82.97
2018-12-20T06:31:27.095Z,84.60
2018-12-20T06:33:01.151Z,83.49
2018-12-20T06:34:34.981Z,84.52
2018-12-20T06:36:08.078Z,84.25
2018-12-20T06:37:41.146Z,84.53
2018-12-20T06:39:15.003Z,85.06
2018-12-20T06:40:48.855Z,84.34
2018-12-20T06:42:23.600Z,84.38
2018-12-20T06:43:56.487Z,84.48
2018-12-20T06:45:30.446Z,84.12
2018-12-20T06:47:04.263Z,84.56
2018-12-20T06:48:38.271Z,83.63
2018-12-20T06:50:13.174Z,84.57
2018-12-20T06:51:47.278Z,83.82
2018-12-20T06:53:22.176Z,84.12
2018-12-20T06:54:56.946Z,84.02
2018-12-20T06:56:31.049Z,83.81
2018-12-20T06:58:06.087Z,84.42
2018-12-20T06:59:41.105Z,81.49
2018-12-20T07:01:15.878Z,81.94
2018-12-20T07:02:50.752Z,82.60
2018-12-20T07:04:25.554Z,81.72
2018-12-20T07:05:59.791Z,82.54
2018-12-20T07:07:34.712Z,83.19
2018-12-20T07:09:09.436Z,82.66
2018-12-20T07:10:44.583Z,83.24
2018-12-20T07:12:19.493Z,83.68
2018-12-20T07:13:54.321Z,82.98
2018-12-20T07:15:29.360Z,82.61
2018-12-20T07:17:04.256Z,80.11
2018-12-20T07:18:38.192Z,82.96
2018-12-20T07:20:12.276Z,82.19
2018-12-20T07:21:46.881Z,82.82
2018-12-20T07:23:20.839Z,83.94
2018-12-20T07:24:54.848Z,83.53
2018-12-20T07:26:29.141Z,83.83
2018-12-20T07:28:03.327Z,83.99
2018-12-20T07:29:38.145Z,82.88
2018-12-20T07:31:12.973Z,81.94
2018-12-20T07:32:47.874Z,82.77
2018-12-20T07:34:22.826Z,82.44
2018-12-20T07:35:57.579Z,82.87
2018-12-20T07:37:31.960Z,81.57
2018-12-20T07:39:07.719Z,82.32
2018-12-20T07:40:41.891Z,82.15
2018-12-20T07:42:17.062Z,81.62
2018-12-20T07:43:51.878Z,80.26
2018-12-20T07:45:26.752Z,81.61
2018-12-20T07:47:00.506Z,82.92
2018-12-20T07:48:34.359Z,82.86
2018-12-20T07:50:09.861Z,81.67
2018-12-20T07:51:44.046Z,83.20
2018-12-20T07:53:18.873Z,83.24
2018-12-20T07:54:53.897Z,83.64
2018-12-20T07:56:28.740Z,80.14
2018-12-20T07:58:03.015Z,82.17
2018-12-20T07:59:37.837Z,82.63
2018-12-20T08:01:11.764Z,82.39
2018-12-20T08:02:46.666Z,83.60
2018-12-20T08:04:21.806Z,81.70
2018-12-20T08:05:56.572Z,83.40
2018-12-20T08:07:30.351Z,82.52
2018-12-20T08:09:04.272Z,82.90
2018-12-20T08:10:37.994Z,82.79
2018-12-20T08:12:12.151Z,83.02
2018-12-20T08:13:47.994Z,82.96
2018-12-20T08:15:23.841Z,83.49
2018-12-20T08:16:57.811Z,81.15
2018-12-20T08:18:31.739Z,81.11
2018-12-20T08:20:05.963Z,78.14
2018-12-20T08:21:39.705Z,77.24
2018-12-20T08:23:14.642Z,81.45
2018-12-20T08:24:49.506Z,80.01
2018-12-20T08:26:23.444Z,80.18
2018-12-20T08:27:57.385Z,79.79
2018-12-20T08:29:32.450Z,82.04
2018-12-20T08:31:06.959Z,81.16
2018-12-20T08:32:40.965Z,80.84
2018-12-20T08:34:14.927Z,79.95
2018-12-20T08:35:50.004Z,79.99
2018-12-20T08:37:25.029Z,81.03
2018-12-20T08:39:00.168Z,81.69
2018-12-20T08:40:36.122Z,82.37
2018-12-20T08:42:10.181Z,80.26
2018-12-20T08:43:45.222Z,79.10
2018-12-20T08:45:19.267Z,79.51
2018-12-20T08:46:54.728Z,79.49
2018-12-20T08:48:29.110Z,79.78
2018-12-20T08:50:03.936Z,80.41
2018-12-20T08:51:38.050Z,80.95
2018-12-20T08:53:12.989Z,80.85
2018-12-20T08:54:47.862Z,80.17
2018-12-20T08:56:22.508Z,80.43
2018-12-20T08:57:56.584Z,79.03
2018-12-20T08:59:30.527Z,77.66
2018-12-20T09:01:06.264Z,79.83
2018-12-20T09:02:40.267Z,81.64
2018-12-20T09:04:14.581Z,81.07
2018-12-20T09:05:49.305Z,81.90
2018-12-20T09:07:23.433Z,80.99
2018-12-20T09:08:57.511Z,80.46
2018-12-20T09:10:32.426Z,81.80
2018-12-20T09:12:06.548Z,79.94
2018-12-20T09:13:40.347Z,80.45
2018-12-20T09:15:15.169Z,79.07
2018-12-20T09:16:50.815Z,77.72
2018-12-20T09:18:24.916Z,79.15
2018-12-20T09:19:59.042Z,79.35
2018-12-20T09:21:33.233Z,77.65
2018-12-20T09:23:08.198Z,78.58
2018-12-20T09:24:43.220Z,79.78
2018-12-20T09:26:17.184Z,80.41
2018-12-20T09:27:51.496Z,80.69
2018-12-20T09:29:25.823Z,80.23
2018-12-20T09:31:01.670Z,81.35
2018-12-20T09:32:37.716Z,77.81
2018-12-20T09:34:12.646Z,76.36
2018-12-20T09:35:47.462Z,80.15
2018-12-20T09:37:23.334Z,80.43
2018-12-20T09:38:58.366Z,76.99
2018-12-20T09:40:33.000Z,79.54
2018-12-20T09:42:07.799Z,81.01
2018-12-20T09:43:43.437Z,77.22
2018-12-20T09:45:19.490Z,78.94
2018-12-20T09:46:54.321Z,79.11
2018-12-20T09:48:29.212Z,77.49
2018-12-20T09:50:03.265Z,79.34
2018-12-20T09:51:37.949Z,78.24
2018-12-20T09:53:12.075Z,77.36
2018-12-20T09:54:46.796Z,77.89
2018-12-20T09:56:21.651Z,77.12
2018-12-20T09:57:56.434Z,76.49
2018-12-20T09:59:30.452Z,77.41
2018-12-20T10:01:04.569Z,79.41
2018-12-20T10:02:39.691Z,79.20
2018-12-20T10:04:15.568Z,80.64
2018-12-20T10:05:51.381Z,77.90
2018-12-20T10:07:26.614Z,76.22
2018-12-20T10:09:01.538Z,77.26
2018-12-20T10:10:35.649Z,76.27
2018-12-20T10:12:10.680Z,78.30
2018-12-20T10:13:45.600Z,79.08
2018-12-20T10:15:21.377Z,80.49
2018-12-20T10:16:56.300Z,81.18
2018-12-20T10:18:30.122Z,81.44
2018-12-20T10:20:04.514Z,80.81
2018-12-20T10:21:38.455Z,78.40
2018-12-20T10:23:12.609Z,76.59
2018-12-20T10:24:47.529Z,77.34
2018-12-20T10:26:25.418Z,77.61
2018-12-20T10:27:59.573Z,77.08
2018-12-20T10:29:35.005Z,77.30
2018-12-20T10:31:11.543Z,79.18
2018-12-20T10:32:45.651Z,77.46
2018-12-20T10:34:21.746Z,79.99
2018-12-20T10:35:57.246Z,80.49
2018-12-20T10:37:32.358Z,77.85
2018-12-20T10:39:06.466Z,78.00
2018-12-20T10:40:41.396Z,76.93
2018-12-20T10:42:17.142Z,79.20
2018-12-20T10:43:51.144Z,79.77
2018-12-20T10:45:25.044Z,77.62
2018-12-20T10:47:01.026Z,80.01
2018-12-20T10:48:35.408Z,78.11
2018-12-20T10:50:10.240Z,79.05
2018-12-20T10:51:45.165Z,79.01
2018-12-20T10:53:21.442Z,77.80
2018-12-20T10:54:56.146Z,79.95
2018-12-20T10:56:30.177Z,76.08
2018-12-20T10:58:04.972Z,77.64
2018-12-20T10:59:39.141Z,76.83
2018-12-20T11:01:18.622Z,79.60
2018-12-20T11:02:58.758Z,77.29
2018-12-20T11:04:36.459Z,78.35
2018-12-20T11:06:15.059Z,76.05
2018-12-20T11:07:54.500Z,78.68
2018-12-20T11:09:36.323Z,75.82
2018-12-20T11:11:15.385Z,76.50
2018-12-20T11:12:54.427Z,75.25
2018-12-20T11:14:29.562Z,74.80
2018-12-20T11:16:04.495Z,72.78
2018-12-20T11:17:39.411Z,76.02
2018-12-20T11:19:16.478Z,79.05
2018-12-20T11:20:52.241Z,77.72
2018-12-20T11:22:27.377Z,78.63
2018-12-20T11:24:02.490Z,75.83
2018-12-20T11:25:37.487Z,79.32
2018-12-20T11:27:13.288Z,75.17
2018-12-20T11:28:48.197Z,78.36
2018-12-20T11:30:23.532Z,76.90
2018-12-20T11:31:57.547Z,73.37
2018-12-20T11:33:32.463Z,78.17
2018-12-20T11:35:07.506Z,78.70
2018-12-20T11:36:43.451Z,74.59
2018-12-20T11:38:18.271Z,78.86
2018-12-20T11:39:59.410Z,79.11
2018-12-20T11:41:29.253Z,73.69
2018-12-20T11:43:04.296Z,78.13
2018-12-20T11:44:39.209Z,77.42
2018-12-20T11:46:13.243Z,77.18
2018-12-20T11:47:47.217Z,74.70
2018-12-20T11:49:23.160Z,74.96
2018-12-20T11:51:00.144Z,75.12
2018-12-20T11:52:42.191Z,78.33
2018-12-20T11:54:08.961Z,75.80
2018-12-20T11:55:42.760Z,75.23
2018-12-20T11:57:18.756Z,78.05
2018-12-20T11:58:53.451Z,77.30
2018-12-20T12:00:30.208Z,78.68
2018-12-20T12:02:06.024Z,79.24
2018-12-20T12:03:41.007Z,78.25
2018-12-20T12:05:16.033Z,77.14
2018-12-20T12:06:51.756Z,78.80
2018-12-20T12:08:26.913Z,76.95
2018-12-20T12:10:01.915Z,77.74
2018-12-20T12:11:37.153Z,75.91
2018-12-20T12:13:12.278Z,76.89
2018-12-20T12:14:49.258Z,76.08
2018-12-20T12:16:23.974Z,77.82
2018-12-20T12:17:59.009Z,76.60
2018-12-20T12:19:33.979Z,76.94
2018-12-20T12:21:07.870Z,73.41
2018-12-20T12:22:42.342Z,76.56
2018-12-20T12:24:17.086Z,74.05
2018-12-20T12:25:52.007Z,73.33
2018-12-20T12:27:27.147Z,72.65
2018-12-20T12:29:03.136Z,74.39
2018-12-20T12:30:37.293Z,77.25
2018-12-20T12:32:12.341Z,78.36
2018-12-20T12:33:46.437Z,73.26
2018-12-20T12:35:21.555Z,74.99
2018-12-20T12:36:56.340Z,78.41
2018-12-20T12:38:32.265Z,79.09
2018-12-20T12:40:06.942Z,74.32
2018-12-20T12:41:40.980Z,76.63
2018-12-20T12:43:15.757Z,76.00
2018-12-20T12:44:49.826Z,76.89
2018-12-20T12:46:23.933Z,77.17
2018-12-20T12:48:04.069Z,78.03
2018-12-20T12:49:38.686Z,75.62
2018-12-20T12:51:13.612Z,77.39
2018-12-20T12:52:47.700Z,74.11
2018-12-20T12:54:21.704Z,72.33
2018-12-20T12:55:57.650Z,75.77
2018-12-20T12:57:31.713Z,77.71
2018-12-20T12:59:05.961Z,76.39
2018-12-20T13:00:40.786Z,78.72
2018-12-20T13:02:16.439Z,77.50
2018-12-20T13:03:51.071Z,75.49
2018-12-20T13:05:24.846Z,76.52
2018-12-20T13:06:59.688Z,77.97
2018-12-20T13:08:33.558Z,76.43
2018-12-20T13:10:07.428Z,74.50
2018-12-20T13:11:42.196Z,73.79
2018-12-20T13:13:18.046Z,78.91
2018-12-20T13:14:54.023Z,78.88
2018-12-20T13:16:28.718Z,79.26
2018-12-20T13:18:06.109Z,77.41
2018-12-20T13:19:36.855Z,79.45
2018-12-20T13:21:11.603Z,72.82
2018-12-20T13:22:46.402Z,76.08
2018-12-20T13:24:21.119Z,78.19
2018-12-20T13:25:55.032Z,73.95
2018-12-20T13:27:28.769Z,75.14
2018-12-20T13:29:04.775Z,77.46
2018-12-20T13:30:38.716Z,79.42
2018-12-20T13:32:12.764Z,77.98
2018-12-20T13:33:47.450Z,77.79
2018-12-20T13:35:22.678Z,79.23
2018-12-20T13:36:57.524Z,80.25
2018-12-20T13:38:32.365Z,76.87
2018-12-20T13:40:08.205Z,74.35
2018-12-20T13:41:43.160Z,78.12
2018-12-20T13:43:17.851Z,76.17
2018-12-20T13:44:51.883Z,77.37
2018-12-20T13:46:25.961Z,78.97
2018-12-20T13:48:00.684Z,75.91
2018-12-20T13:49:35.517Z,75.36
2018-12-20T13:51:10.147Z,79.23
2018-12-20T13:52:43.136Z,78.32
2018-12-20T13:54:17.060Z,78.92
2018-12-20T13:55:52.040Z,77.43
2018-12-20T13:57:27.053Z,79.19
2018-12-20T13:59:03.539Z,75.88
2018-12-20T14:00:37.438Z,77.87
2018-12-20T14:02:12.197Z,77.28
2018-12-20T14:03:46.001Z,79.30
2018-12-20T14:05:20.957Z,78.88
2018-12-20T14:06:55.791Z,79.09
2018-12-20T14:08:31.634Z,76.33
2018-12-20T14:10:06.375Z,74.08
2018-12-20T14:11:40.051Z,75.36
2018-12-20T14:13:14.219Z,76.93
2018-12-20T14:14:49.206Z,75.21
2018-12-20T14:16:24.078Z,79.31
2018-12-20T14:17:59.295Z,80.00
2018-12-20T14:19:33.905Z,79.77
2018-12-20T14:21:07.831Z,77.47
2018-12-20T14:22:41.906Z,75.33
2018-12-20T14:24:16.015Z,76.50
2018-12-20T14:25:50.237Z,79.20
2018-12-20T14:27:25.039Z,77.61
2018-12-20T14:28:59.976Z,78.71
2018-12-20T14:30:34.489Z,79.47
2018-12-20T14:32:08.491Z,76.90
2018-12-20T14:33:42.383Z,76.44
2018-12-20T14:35:17.734Z,77.30
2018-12-20T14:36:53.887Z,78.00
2018-12-20T14:38:29.648Z,76.77
2018-12-20T14:40:04.339Z,76.70
2018-12-20T14:41:39.182Z,73.54
2018-12-20T14:43:14.305Z,75.63
2018-12-20T14:44:49.153Z,77.82
2018-12-20T14:46:23.983Z,78.72
2018-12-20T14:47:58.139Z,77.70
2018-12-20T14:49:31.133Z,78.14
2018-12-20T14:51:05.335Z,79.43
2018-12-20T14:52:41.307Z,77.30
2018-12-20T14:54:16.330Z,79.03
2018-12-20T14:55:51.046Z,76.06
2018-12-20T14:57:25.109Z,77.69
2018-12-20T14:58:59.172Z,79.45
2018-12-20T15:00:35.274Z,79.17
2018-12-20T15:02:10.148Z,76.95
2018-12-20T15:03:44.775Z,77.86
2018-12-20T15:05:18.838Z,75.98
2018-12-20T15:06:53.911Z,77.91
2018-12-20T15:08:28.835Z,74.38
2018-12-20T15:10:03.718Z,76.31
2018-12-20T15:11:38.548Z,74.60
2018-12-20T15:13:13.666Z,74.93
2018-12-20T15:14:48.332Z,78.08
2018-12-20T15:16:22.906Z,72.82
2018-12-20T15:17:57.127Z,77.29
2018-12-20T15:19:32.039Z,77.77
2018-12-20T15:21:06.989Z,78.27
2018-12-20T15:22:42.334Z,78.05
2018-12-20T15:24:17.288Z,79.39
2018-12-20T15:25:53.317Z,79.42
2018-12-20T15:27:27.364Z,77.75
2018-12-20T15:29:01.369Z,76.39
2018-12-20T15:30:36.601Z,77.56
2018-12-20T15:32:12.454Z,75.94
2018-12-20T15:33:47.318Z,76.68
2018-12-20T15:35:22.808Z,79.38
2018-12-20T15:36:57.199Z,77.86
2018-12-20T15:38:34.179Z,77.93
2018-12-20T15:40:08.742Z,78.26
2018-12-20T15:41:42.893Z,79.40
2018-12-20T15:43:18.783Z,76.17
2018-12-20T15:44:53.657Z,77.94
2018-12-20T15:46:29.723Z,79.51
2018-12-20T15:48:04.307Z,77.78
2018-12-20T15:49:42.032Z,75.20
2018-12-20T15:51:13.985Z,77.02
2018-12-20T15:52:49.503Z,79.31
2018-12-20T15:54:23.428Z,73.64
2018-12-20T15:55:58.452Z,76.80
2018-12-20T15:57:33.353Z,76.27
2018-12-20T15:59:08.366Z,77.86
2018-12-20T16:00:45.033Z,78.31
2018-12-20T16:02:18.944Z,79.08
2018-12-20T16:03:53.202Z,76.58
2018-12-20T16:05:28.118Z,78.69
2018-12-20T16:07:02.113Z,75.43
2018-12-20T16:08:34.953Z,76.79
2018-12-20T16:10:09.010Z,76.19
2018-12-20T16:11:45.381Z,77.83
2018-12-20T16:13:19.999Z,74.43
2018-12-20T16:14:54.143Z,76.62
2018-12-20T16:16:29.312Z,77.51
2018-12-20T16:18:04.152Z,77.96
2018-12-20T16:19:39.128Z,79.62
2018-12-20T16:21:13.275Z,79.29
2018-12-20T16:22:48.080Z,78.94
2018-12-20T16:24:24.828Z,79.58
2018-12-20T16:25:58.824Z,79.04
2018-12-20T16:27:34.567Z,78.27
2018-12-20T16:29:08.557Z,78.35
2018-12-20T16:30:42.425Z,78.96
2018-12-20T16:32:18.402Z,79.31
2018-12-20T16:33:56.217Z,78.21
2018-12-20T16:35:30.103Z,75.48
2018-12-20T16:37:04.819Z,76.68
2018-12-20T16:38:38.943Z,78.53
2018-12-20T16:40:12.812Z,78.63
2018-12-20T16:41:48.762Z,79.29
2018-12-20T16:43:22.771Z,76.73
2018-12-20T16:44:58.631Z,77.60
2018-12-20T16:46:32.822Z,78.07
2018-12-20T16:48:08.777Z,80.03
2018-12-20T16:49:43.708Z,78.14
2018-12-20T16:51:18.515Z,73.43
2018-12-20T16:52:53.622Z,76.72
2018-12-20T16:54:28.108Z,75.28
2018-12-20T16:56:01.886Z,77.37
2018-12-20T16:57:35.979Z,78.97
2018-12-20T16:59:10.089Z,79.51
2018-12-20T17:00:45.123Z,79.41
2018-12-20T17:02:20.024Z,80.16
2018-12-20T17:03:53.750Z,77.58
2018-12-20T17:05:28.849Z,76.66
2018-12-20T17:07:02.665Z,79.09
2018-12-20T17:08:36.674Z,79.20
2018-12-20T17:10:11.192Z,79.31
2018-12-20T17:11:45.624Z,79.39
2018-12-20T17:13:20.732Z,79.64
2018-12-20T17:14:54.633Z,79.83
2018-12-20T17:16:28.557Z,79.54
2018-12-20T17:18:02.749Z,79.85
2018-12-20T17:19:36.659Z,75.90
2018-12-20T17:21:10.760Z,77.46
2018-12-20T17:22:46.528Z,79.10
2018-12-20T17:24:21.438Z,79.06
2018-12-20T17:25:56.459Z,79.58
2018-12-20T17:27:30.385Z,79.52
2018-12-20T17:29:05.258Z,78.73
2018-12-20T17:30:39.631Z,79.68
2018-12-20T17:32:13.694Z,79.75
2018-12-20T17:33:47.616Z,77.24
2018-12-20T17:35:22.538Z,78.49
2018-12-20T17:36:58.303Z,77.76
2018-12-20T17:38:32.393Z,79.05
2018-12-20T17:40:06.203Z,78.83
2018-12-20T17:41:40.945Z,79.47
2018-12-20T17:43:14.689Z,76.65
2018-12-20T17:44:48.830Z,77.03
2018-12-20T17:46:23.635Z,76.67
2018-12-20T17:47:57.520Z,73.44
2018-12-20T17:49:31.544Z,78.05
2018-12-20T17:51:06.574Z,76.29
2018-12-20T17:52:40.207Z,77.41
2018-12-20T17:54:15.208Z,78.16
2018-12-20T17:55:49.168Z,79.49
2018-12-20T17:57:23.227Z,79.31
2018-12-20T17:58:58.143Z,78.79
2018-12-20T18:00:34.071Z,79.24
2018-12-20T18:02:09.318Z,79.76
2018-12-20T18:03:44.121Z,79.43
2018-12-20T18:05:18.152Z,79.51
2018-12-20T18:06:52.030Z,80.04
2018-12-20T18:08:26.128Z,78.34
2018-12-20T18:10:01.151Z,79.32
2018-12-20T18:11:35.675Z,79.64
2018-12-20T18:13:10.523Z,79.50
2018-12-20T18:14:45.473Z,78.71
2018-12-20T18:16:19.279Z,79.21
2018-12-20T18:17:53.054Z,79.53
2018-12-20T18:19:27.745Z,79.69
2018-12-20T18:21:03.734Z,79.50
2018-12-20T18:22:37.680Z,77.11
2018-12-20T18:24:11.735Z,75.95
2018-12-20T18:25:45.844Z,75.13
2018-12-20T18:27:19.666Z,74.56
2018-12-20T18:28:54.686Z,74.25
2018-12-20T18:30:30.826Z,77.57
2018-12-20T18:32:04.830Z,75.54
2018-12-20T18:33:39.839Z,78.70
2018-12-20T18:35:13.836Z,78.49
2018-12-20T18:36:47.935Z,77.10
2018-12-20T18:38:21.884Z,76.32
2018-12-20T18:39:57.183Z,77.38
2018-12-20T18:41:31.943Z,78.00
2018-12-20T18:43:06.826Z,77.87
2018-12-20T18:44:41.578Z,79.32
2018-12-20T18:46:16.293Z,77.07
2018-12-20T18:47:50.211Z,79.15
2018-12-20T18:49:25.028Z,78.28
2018-12-20T18:51:00.158Z,77.20
2018-12-20T18:52:35.827Z,79.24
2018-12-20T18:54:09.690Z,79.01
2018-12-20T18:55:43.452Z,79.16
2018-12-20T18:57:17.306Z,77.57
2018-12-20T18:58:51.202Z,78.94
2018-12-20T19:00:26.340Z,77.55
2018-12-20T19:02:01.235Z,79.13
2018-12-20T19:03:36.390Z,79.36
2018-12-20T19:05:11.421Z,79.67
2018-12-20T19:06:46.241Z,79.60
2018-12-20T19:08:21.285Z,79.29
2018-12-20T19:09:55.140Z,79.42
2018-12-20T19:11:29.285Z,79.64
2018-12-20T19:13:03.260Z,79.45
2018-12-20T19:14:37.090Z,79.72
2018-12-20T19:16:11.907Z,79.76
2018-12-20T19:17:45.933Z,80.00
2018-12-20T19:19:20.121Z,79.39
2018-12-20T19:20:54.848Z,79.67
2018-12-20T19:22:28.944Z,79.16
2018-12-20T19:24:03.261Z,78.46
2018-12-20T19:25:38.185Z,79.44
2018-12-20T19:27:13.785Z,79.72
2018-12-20T19:28:50.348Z,78.70
2018-12-20T19:30:28.171Z,78.91
2018-12-20T19:32:04.228Z,79.13
2018-12-20T19:33:38.969Z,79.67
2018-12-20T19:35:14.199Z,79.69
2018-12-20T19:36:49.336Z,79.55
2018-12-20T19:38:23.436Z,79.85
2018-12-20T19:39:59.494Z,79.95
2018-12-20T19:41:34.405Z,79.92
2018-12-20T19:43:08.241Z,79.88
2018-12-20T19:44:42.517Z,80.00
2018-12-20T19:46:16.534Z,75.97
2018-12-20T19:47:50.371Z,78.88
2018-12-20T19:49:24.438Z,79.46
2018-12-20T19:50:58.268Z,79.97
2018-12-20T19:52:32.349Z,79.76
2018-12-20T19:54:06.259Z,79.76
2018-12-20T19:55:43.042Z,79.46
2018-12-20T19:57:14.241Z,79.81
2018-12-20T19:58:48.063Z,79.85
2018-12-20T20:00:26.160Z,79.92
2018-12-20T20:02:04.524Z,79.92
2018-12-20T20:03:34.886Z,79.61
2018-12-20T20:05:09.708Z,80.05
2018-12-20T20:06:43.728Z,79.79
2018-12-20T20:08:17.707Z,75.52
2018-12-20T20:09:51.520Z,78.21
2018-12-20T20:11:25.527Z,77.69
2018-12-20T20:13:00.442Z,79.26
2018-12-20T20:14:34.363Z,79.33
2018-12-20T20:16:08.648Z,79.49